createdAt,value
2018-12-19T00:00:47.791Z,22.57
2018-12-19T00:03:31.337Z,18.67
2018-12-19T00:06:05.694Z,24.07
2018-12-19T00:08:47.588Z,22.23
2018-12-19T00:11:19.852Z,22.33
2018-12-19T00:14:05.056Z,19.57
2018-12-19T00:16:36.627Z,20.93
2018-12-19T00:19:13.396Z,20.00
2018-12-19T00:21:50.219Z,19.17
2018-12-19T00:24:26.853Z,18.93
2018-12-19T00:27:13.498Z,22.83
2018-12-19T00:29:47.586Z,23.73
2018-12-19T00:32:34.349Z,21.83
2018-12-19T00:35:29.452Z,19.70
2018-12-19T00:38:00.878Z,23.13
2018-12-19T00:40:32.307Z,22.47
2018-12-19T00:43:13.481Z,19.97
2018-12-19T00:45:45.023Z,21.83
2018-12-19T00:48:29.561Z,20.20
2018-12-19T00:51:01.258Z,24.40
2018-12-19T00:53:45.900Z,26.73
2018-12-19T00:56:17.386Z,21.70
2018-12-19T00:59:01.968Z,26.77
2018-12-19T01:01:33.402Z,24.10
2018-12-19T01:04:17.911Z,25.90
2018-12-19T01:06:49.352Z,25.83
2018-12-19T01:09:34.041Z,25.17
2018-12-19T01:12:06.793Z,28.23
2018-12-19T01:14:54.281Z,30.00
2018-12-19T01:17:25.707Z,31.00
2018-12-19T01:20:16.302Z,30.40
2018-12-19T01:22:47.746Z,26.80
2018-12-19T01:25:28.811Z,33.07
2018-12-19T01:28:00.229Z,29.63
2018-12-19T01:43:44.949Z,26.97
2018-12-19T01:46:17.429Z,29.73
2018-12-19T01:48:58.483Z,31.70
2018-12-19T01:51:30.506Z,33.63
2018-12-19T01:54:11.570Z,30.43
2018-12-19T01:56:43.000Z,37.10
2018-12-19T01:59:24.074Z,29.43
2018-12-19T02:01:55.448Z,31.80
2018-12-19T02:04:40.470Z,31.30
2018-12-19T02:07:12.108Z,34.23
2018-12-19T02:23:00.125Z,37.17
2018-12-19T02:25:31.586Z,37.77
2018-12-19T02:28:12.608Z,36.47
2018-12-19T02:30:44.014Z,35.67
2018-12-19T02:33:25.053Z,32.53
2018-12-19T02:35:56.637Z,33.23
2018-12-19T02:38:37.750Z,39.13
2018-12-19T02:41:09.288Z,34.77
2018-12-19T02:43:50.316Z,35.17
2018-12-19T02:46:21.735Z,34.17
2018-12-19T02:49:06.283Z,37.33
2018-12-19T02:51:37.907Z,39.73
2018-12-19T02:54:18.921Z,30.13
2018-12-19T02:56:50.433Z,35.07
2018-12-19T02:59:31.476Z,44.93
2018-12-19T03:02:04.353Z,33.77
2018-12-19T03:04:52.882Z,35.80
2018-12-19T03:07:24.301Z,35.13
2018-12-19T03:10:06.109Z,40.33
2018-12-19T03:12:38.650Z,36.53
2018-12-19T03:15:23.205Z,33.20
2018-12-19T03:17:54.716Z,35.47
2018-12-19T03:33:36.364Z,33.73
2018-12-19T03:36:07.819Z,37.83
2018-12-19T03:38:49.393Z,39.33
2018-12-19T03:41:20.964Z,39.43
2018-12-19T03:44:02.094Z,37.30
2018-12-19T03:46:33.537Z,40.07
2018-12-19T03:49:14.695Z,40.03
2018-12-19T03:51:46.447Z,44.40
2018-12-19T03:54:27.649Z,37.70
2018-12-19T03:56:59.445Z,40.13
2018-12-19T03:59:41.225Z,42.57
2018-12-19T04:02:12.994Z,41.17
2018-12-19T04:05:00.483Z,32.97
2018-12-19T04:07:31.901Z,38.93
2018-12-19T04:10:16.463Z,35.87
2018-12-19T04:12:48.094Z,44.10
2018-12-19T04:15:29.817Z,39.70
2018-12-19T04:18:01.367Z,39.17
2018-12-19T04:20:43.014Z,36.73
2018-12-19T04:23:14.446Z,36.03
2018-12-19T04:25:55.497Z,39.20
2018-12-19T04:28:26.909Z,37.40
2018-12-19T04:31:08.135Z,36.50
2018-12-19T04:33:39.635Z,42.50
2018-12-19T04:36:20.734Z,84.43
2018-12-19T04:38:52.201Z,52.50
2018-12-19T04:41:36.789Z,36.70
2018-12-19T04:44:08.618Z,35.43
2018-12-19T04:46:56.233Z,35.57
2018-12-19T04:49:27.701Z,31.03
2018-12-19T04:52:08.736Z,32.63
2018-12-19T04:54:40.139Z,39.27
2018-12-19T04:57:24.722Z,44.80
2018-12-19T04:59:56.201Z,35.20
2018-12-19T05:02:40.874Z,33.07
2018-12-19T05:05:12.321Z,29.57
2018-12-19T05:08:02.961Z,31.00
2018-12-19T05:10:34.328Z,36.07
2018-12-19T05:13:16.090Z,37.30
2018-12-19T05:15:47.678Z,28.07
2018-12-19T05:18:29.413Z,82.73
2018-12-19T05:21:03.366Z,51.13
2018-12-19T05:23:50.973Z,30.47
2018-12-19T05:26:22.415Z,35.97
2018-12-19T05:29:15.986Z,33.37
2018-12-19T05:31:47.472Z,33.00
2018-12-19T05:34:32.120Z,32.13
2018-12-19T05:37:03.570Z,29.40
2018-12-19T05:39:44.664Z,43.03
2018-12-19T05:42:16.156Z,36.30
2018-12-19T05:45:03.901Z,26.50
2018-12-19T05:47:35.660Z,27.77
2018-12-19T05:50:22.981Z,24.73
2018-12-19T05:52:54.394Z,24.10
2018-12-19T05:55:35.476Z,39.43
2018-12-19T05:58:06.929Z,37.83
2018-12-19T06:00:51.505Z,29.20
2018-12-19T06:03:24.892Z,27.70
2018-12-19T06:06:06.445Z,25.90
2018-12-19T06:08:37.862Z,34.67
2018-12-19T06:11:35.985Z,28.93
2018-12-19T06:14:07.651Z,93.47
2018-12-19T06:16:52.212Z,31.00
2018-12-19T06:19:24.686Z,24.83
2018-12-19T06:22:05.672Z,22.57
2018-12-19T06:24:37.132Z,27.00
2018-12-19T06:27:27.673Z,24.93
2018-12-19T06:29:59.090Z,27.50
2018-12-19T06:46:12.320Z,21.90
2018-12-19T06:48:43.835Z,23.93
2018-12-19T06:51:31.476Z,27.33
2018-12-19T06:54:02.820Z,29.10
2018-12-19T06:56:50.609Z,23.23
2018-12-19T06:59:22.096Z,27.00
2018-12-19T07:02:06.735Z,22.87
2018-12-19T07:04:38.166Z,24.57
2018-12-19T07:07:22.903Z,29.17
2018-12-19T07:09:54.339Z,30.23
2018-12-19T07:12:41.994Z,26.97
2018-12-19T07:15:13.527Z,36.87
2018-12-19T07:17:58.713Z,23.60
2018-12-19T07:20:30.341Z,30.20
2018-12-19T07:23:15.191Z,23.67
2018-12-19T07:25:46.601Z,28.03
2018-12-19T07:28:27.748Z,23.10
2018-12-19T07:30:59.114Z,26.30
2018-12-19T07:33:40.872Z,26.30
2018-12-19T07:36:12.466Z,23.23
2018-12-19T07:38:56.109Z,22.53
2018-12-19T07:41:27.512Z,28.10
2018-12-19T07:44:08.647Z,24.87
2018-12-19T07:46:40.178Z,24.57
2018-12-19T07:49:24.845Z,25.83
2018-12-19T07:51:56.213Z,26.27
2018-12-19T08:20:47.910Z,23.47
2018-12-19T08:23:19.374Z,27.57
2018-12-19T08:26:03.946Z,20.57
2018-12-19T08:28:35.451Z,21.47
2018-12-19T08:31:16.620Z,25.77
2018-12-19T08:33:48.208Z,22.93
2018-12-19T08:36:32.856Z,22.53
2018-12-19T08:39:06.693Z,20.27
2018-12-19T08:54:54.380Z,19.53
2018-12-19T08:57:26.087Z,17.50
2018-12-19T09:00:19.786Z,18.50
2018-12-19T09:02:51.185Z,20.53
2018-12-19T09:05:35.734Z,19.03
2018-12-19T09:08:07.216Z,20.23
2018-12-19T09:11:05.633Z,18.87
2018-12-19T09:13:34.370Z,19.17
2018-12-19T09:29:34.657Z,20.83
2018-12-19T09:32:06.114Z,23.43
2018-12-19T09:34:47.237Z,19.90
2018-12-19T09:37:18.848Z,21.20
2018-12-19T09:40:06.615Z,20.23
2018-12-19T09:42:38.114Z,19.43
2018-12-19T09:45:19.754Z,24.40
2018-12-19T09:47:51.270Z,23.87
2018-12-19T09:50:32.540Z,21.30
2018-12-19T09:53:04.089Z,20.50
2018-12-19T09:55:45.239Z,19.30
2018-12-19T09:58:16.873Z,23.13
2018-12-19T10:01:05.832Z,20.37
2018-12-19T10:03:37.771Z,20.03
2018-12-19T10:06:19.307Z,18.50
2018-12-19T10:08:50.935Z,20.60
2018-12-19T10:11:34.335Z,18.70
2018-12-19T10:14:05.885Z,22.33
2018-12-19T10:16:46.935Z,19.13
2018-12-19T10:19:18.416Z,18.90
2018-12-19T10:22:03.313Z,17.77
2018-12-19T10:24:40.232Z,17.60
2018-12-19T10:27:34.081Z,20.10
2018-12-19T10:30:08.789Z,19.50
2018-12-19T10:32:57.275Z,19.90
2018-12-19T10:35:28.657Z,18.80
2018-12-19T10:38:09.718Z,20.67
2018-12-19T10:40:41.146Z,20.70
2018-12-19T10:43:28.966Z,18.90
2018-12-19T10:46:00.657Z,21.03
2018-12-19T10:48:45.296Z,18.23
2018-12-19T10:51:16.913Z,18.93
2018-12-19T10:53:58.170Z,18.23
2018-12-19T10:56:30.408Z,22.90
2018-12-19T10:59:15.036Z,20.93
2018-12-19T11:01:46.617Z,18.30
2018-12-19T11:04:34.282Z,23.23
2018-12-19T11:07:05.820Z,21.23
2018-12-19T11:09:47.019Z,18.20
2018-12-19T11:12:18.642Z,21.33
2018-12-19T11:15:00.334Z,25.23
2018-12-19T11:17:31.952Z,19.67
2018-12-19T11:20:16.631Z,19.30
2018-12-19T11:22:48.137Z,20.67
2018-12-19T11:25:29.811Z,18.10
2018-12-19T11:28:01.372Z,19.87
2018-12-19T11:30:43.118Z,17.30
2018-12-19T11:33:14.610Z,18.30
2018-12-19T11:35:59.366Z,24.80
2018-12-19T11:38:30.968Z,16.97
2018-12-19T11:41:12.062Z,17.83
2018-12-19T11:43:43.668Z,19.87
2018-12-19T11:46:25.784Z,19.23
2018-12-19T11:48:57.236Z,19.83
2018-12-19T11:51:38.399Z,19.53
2018-12-19T11:54:10.025Z,21.87
2018-12-19T11:56:51.185Z,18.23
2018-12-19T11:59:25.769Z,19.07
2018-12-19T12:02:06.910Z,16.43
2018-12-19T12:04:38.423Z,18.70
2018-12-19T12:07:21.784Z,19.00
2018-12-19T12:09:53.224Z,19.50
2018-12-19T12:12:37.845Z,18.70
2018-12-19T12:15:09.767Z,16.87
2018-12-19T12:17:50.914Z,18.20
2018-12-19T12:20:22.297Z,19.87
2018-12-19T12:23:03.469Z,19.87
2018-12-19T12:25:35.167Z,19.47
2018-12-19T12:28:19.704Z,20.17
2018-12-19T12:30:51.226Z,19.90
2018-12-19T12:33:38.905Z,20.50
2018-12-19T12:36:10.560Z,19.80
2018-12-19T12:38:52.398Z,20.20
2018-12-19T12:41:23.938Z,18.67
2018-12-19T12:57:17.886Z,18.50
2018-12-19T12:59:49.313Z,20.37
2018-12-19T13:02:30.376Z,22.47
2018-12-19T13:05:01.921Z,24.10
2018-12-19T13:07:52.932Z,21.17
2018-12-19T13:10:24.354Z,17.60
2018-12-19T13:13:11.958Z,20.57
2018-12-19T13:15:47.012Z,19.60
2018-12-19T13:31:41.936Z,20.97
2018-12-19T13:34:13.466Z,19.23
2018-12-19T13:36:58.142Z,21.83
2018-12-19T13:39:29.683Z,18.83
2018-12-19T13:42:17.482Z,21.00
2018-12-19T13:44:48.955Z,19.77
2018-12-19T13:47:42.663Z,20.53
2018-12-19T13:50:14.152Z,26.00
2018-12-19T13:52:55.357Z,21.10
2018-12-19T13:55:26.934Z,21.37
2018-12-19T13:58:14.615Z,18.37
2018-12-19T14:00:46.086Z,23.53
2018-12-19T14:03:27.727Z,23.47
2018-12-19T14:05:59.273Z,18.23
2018-12-19T14:08:49.978Z,19.47
2018-12-19T14:11:21.696Z,19.87
2018-12-19T14:14:06.427Z,23.17
2018-12-19T14:16:38.156Z,19.27
2018-12-19T14:19:19.244Z,21.70
2018-12-19T14:21:50.787Z,18.90
2018-12-19T14:24:35.612Z,16.63
2018-12-19T14:27:07.167Z,20.07
2018-12-19T14:29:51.807Z,19.40
2018-12-19T14:32:23.476Z,20.87
2018-12-19T14:35:05.012Z,19.67
2018-12-19T14:37:36.702Z,21.30
2018-12-19T14:40:21.358Z,18.70
2018-12-19T14:42:53.075Z,22.30
2018-12-19T14:45:34.958Z,20.20
2018-12-19T14:48:06.630Z,17.20
2018-12-19T14:50:53.124Z,22.80
2018-12-19T14:53:24.947Z,22.77
2018-12-19T14:56:09.549Z,19.53
2018-12-19T14:58:41.337Z,23.23
2018-12-19T15:01:22.826Z,19.07
2018-12-19T15:03:54.651Z,19.07
2018-12-19T15:06:36.844Z,19.80
2018-12-19T15:09:08.650Z,18.97
2018-12-19T15:11:49.902Z,22.57
2018-12-19T15:14:21.480Z,18.00
2018-12-19T15:17:06.202Z,18.83
2018-12-19T15:19:38.043Z,19.37
2018-12-19T15:22:22.664Z,19.57
2018-12-19T15:24:54.243Z,18.20
2018-12-19T15:27:38.867Z,21.77
2018-12-19T15:30:10.624Z,23.27
2018-12-19T15:32:51.825Z,21.73
2018-12-19T15:35:23.300Z,20.90
2018-12-19T15:38:04.388Z,22.73
2018-12-19T15:40:35.909Z,25.40
2018-12-19T15:43:20.565Z,23.57
2018-12-19T15:45:52.172Z,24.10
2018-12-19T15:48:36.798Z,22.83
2018-12-19T15:51:08.256Z,21.47
2018-12-19T15:53:52.821Z,21.00
2018-12-19T15:56:24.298Z,25.80
2018-12-19T15:59:05.863Z,84.50
2018-12-19T16:01:37.356Z,47.23
2018-12-19T16:04:18.968Z,23.03
2018-12-19T16:06:50.450Z,27.53
2018-12-19T16:09:35.138Z,25.13
2018-12-19T16:12:07.162Z,25.60
2018-12-19T16:14:51.892Z,27.37
2018-12-19T16:17:23.352Z,32.27
2018-12-19T16:20:09.565Z,29.23
2018-12-19T16:22:41.088Z,24.50
2018-12-19T16:25:26.091Z,25.73
2018-12-19T16:27:57.689Z,23.17
2018-12-19T16:30:38.752Z,22.67
2018-12-19T16:33:10.511Z,26.57
2018-12-19T17:02:02.249Z,25.20
2018-12-19T17:04:33.903Z,23.83
2018-12-19T17:07:15.097Z,23.30
2018-12-19T17:09:46.650Z,22.53
2018-12-19T17:12:27.679Z,21.07
2018-12-19T17:15:00.513Z,24.17
2018-12-19T17:17:51.366Z,25.10
2018-12-19T17:20:22.897Z,29.60
2018-12-19T17:23:03.994Z,26.97
2018-12-19T17:25:35.490Z,23.90
2018-12-19T17:28:20.103Z,24.03
2018-12-19T17:30:51.657Z,24.73
2018-12-19T17:33:36.323Z,24.07
2018-12-19T17:36:07.761Z,26.17
2018-12-19T17:38:55.375Z,25.47
2018-12-19T17:41:26.782Z,26.33
2018-12-19T17:44:11.746Z,25.17
2018-12-19T17:46:43.467Z,27.73
2018-12-19T17:49:28.149Z,22.60
2018-12-19T17:51:59.830Z,28.20
2018-12-19T17:54:41.026Z,26.73
2018-12-19T17:57:12.756Z,27.43
2018-12-19T18:12:58.622Z,26.97
2018-12-19T18:15:30.425Z,27.00
2018-12-19T18:18:15.074Z,26.67
2018-12-19T18:20:46.956Z,26.83
2018-12-19T18:23:28.138Z,28.37
2018-12-19T18:25:59.821Z,28.77
2018-12-19T18:28:57.136Z,25.97
2018-12-19T18:31:29.014Z,29.03
2018-12-19T18:34:10.041Z,28.30
2018-12-19T18:36:41.905Z,28.73
2018-12-19T18:39:26.303Z,26.30
2018-12-19T18:41:57.280Z,27.90
2018-12-19T18:44:42.162Z,29.90
2018-12-19T18:47:14.111Z,27.60
2018-12-19T18:50:00.992Z,27.20
2018-12-19T18:52:32.865Z,23.53
2018-12-19T19:08:21.381Z,29.20
2018-12-19T19:10:53.286Z,31.80
2018-12-19T19:13:34.546Z,31.87
2018-12-19T19:16:06.035Z,35.80
2018-12-19T19:18:47.448Z,29.80
2018-12-19T19:21:19.433Z,30.67
2018-12-19T19:24:01.295Z,65.77
2018-12-19T19:26:32.886Z,40.10
2018-12-19T19:32:18.790Z,30.87
2018-12-19T19:35:14.873Z,31.83
2018-12-19T19:37:55.942Z,34.30
2018-12-19T19:40:45.643Z,27.13
2018-12-19T19:43:26.561Z,28.13
2018-12-19T19:46:20.449Z,29.60
2018-12-19T19:49:13.535Z,26.70
2018-12-19T19:52:15.893Z,30.40
2018-12-19T19:54:53.404Z,26.43
2018-12-19T19:57:48.458Z,30.13
2018-12-19T20:00:30.363Z,30.80
2018-12-19T20:03:18.062Z,34.00
2018-12-19T20:05:51.724Z,34.07
2018-12-19T20:08:33.724Z,38.20
2018-12-19T20:14:30.601Z,42.73
2018-12-19T20:20:44.976Z,40.80
2018-12-19T20:23:47.576Z,41.97
2018-12-19T20:29:41.167Z,28.63
2018-12-19T20:32:12.800Z,30.10
2018-12-19T20:35:13.176Z,30.10
2018-12-19T21:03:18.692Z,31.10
2018-12-19T21:06:10.574Z,30.43
2018-12-19T21:09:09.591Z,30.83
2018-12-19T21:15:23.049Z,28.83
2018-12-19T21:17:59.793Z,27.50
2018-12-19T21:20:51.644Z,31.57
2018-12-19T21:23:23.302Z,28.33
2018-12-19T21:26:09.838Z,28.00
2018-12-19T21:28:41.598Z,29.43
2018-12-19T21:31:22.807Z,29.47
2018-12-19T21:33:54.325Z,34.53
2018-12-19T21:36:47.884Z,29.77
2018-12-19T21:39:19.560Z,27.87
2018-12-19T21:42:00.667Z,29.87
2018-12-19T21:44:32.337Z,28.53
2018-12-19T22:13:27.011Z,29.47
2018-12-19T22:15:58.656Z,29.43
2018-12-19T22:18:48.849Z,29.33
2018-12-19T22:21:20.558Z,31.83
2018-12-19T22:24:05.325Z,31.87
2018-12-19T22:26:37.952Z,30.70
2018-12-19T22:29:19.566Z,30.53
2018-12-19T22:31:50.976Z,31.37
2018-12-19T22:34:32.172Z,30.10
2018-12-19T22:37:03.748Z,30.10
2018-12-19T22:39:45.494Z,30.73
2018-12-19T22:42:17.000Z,30.03
2018-12-19T22:45:17.281Z,27.50
2018-12-19T22:47:48.897Z,30.23
2018-12-19T22:50:39.677Z,29.87
2018-12-19T22:53:11.369Z,30.47
2018-12-19T22:55:52.665Z,30.33
2018-12-19T22:58:24.298Z,28.97
2018-12-19T23:01:17.556Z,25.93
2018-12-19T23:04:07.224Z,26.00
2018-12-19T23:06:55.064Z,32.00
2018-12-19T23:09:27.658Z,30.20
2018-12-19T23:12:18.547Z,28.63
2018-12-19T23:14:49.934Z,32.60
2018-12-19T23:17:40.639Z,29.47
2018-12-19T23:20:17.858Z,28.70
2018-12-19T23:23:05.145Z,27.90
2018-12-19T23:25:44.747Z,29.90
2018-12-19T23:28:27.881Z,26.83
2018-12-19T23:31:01.291Z,29.20
2018-12-19T23:33:42.558Z,28.97
2018-12-19T23:36:14.226Z,30.87
2018-12-19T23:39:02.068Z,27.00
2018-12-19T23:41:35.721Z,31.10
2018-12-19T23:44:32.661Z,32.23
2018-12-19T23:47:04.579Z,28.47
2018-12-19T23:49:49.339Z,30.00
2018-12-19T23:52:20.980Z,26.53
2018-12-19T23:55:06.324Z,31.87
2018-12-19T23:57:38.165Z,28.70
